createdAt,value
2023-05-01T00:01:43.149Z,9.23
2023-05-01T00:04:09.676Z,10.77
2023-05-01T00:06:36.251Z,13.53
2023-05-01T00:09:03.097Z,11.13
2023-05-01T00:11:29.492Z,9.93
2023-05-01T00:13:55.849Z,9.10
2023-05-01T00:16:22.525Z,10.40
2023-05-01T00:18:48.973Z,10.50
2023-05-01T00:21:15.576Z,10.25
2023-05-01T00:23:41.957Z,8.73
2023-05-01T00:26:08.481Z,12.27
2023-05-01T00:28:34.889Z,10.70
2023-05-01T00:31:01.276Z,12.50
2023-05-01T00:33:27.641Z,10.15
2023-05-01T00:35:55.612Z,8.93
2023-05-01T00:38:23.785Z,11.25
2023-05-01T00:40:50.134Z,9.60
2023-05-01T00:43:16.549Z,12.67
2023-05-01T00:45:46.039Z,12.40
2023-05-01T00:48:12.527Z,9.40
2023-05-01T00:50:39.619Z,10.05
2023-05-01T00:53:06.092Z,10.20
2023-05-01T00:55:33.646Z,10.73
2023-05-01T00:58:01.574Z,9.68
2023-05-01T01:00:29.460Z,9.43
2023-05-01T01:02:56.064Z,13.63
2023-05-01T01:05:25.752Z,13.05
2023-05-01T01:08:05.030Z,10.60
2023-05-01T01:10:36.988Z,8.63
2023-05-01T01:13:28.945Z,9.68
2023-05-01T01:16:15.897Z,11.02
2023-05-01T01:18:52.958Z,10.77
2023-05-01T01:21:28.252Z,11.40
2023-05-01T01:24:00.928Z,12.85
2023-05-01T01:26:33.413Z,11.25
2023-05-01T01:29:29.305Z,11.63
2023-05-01T01:32:31.886Z,11.18
2023-05-01T01:35:04.852Z,11.87
2023-05-01T01:37:41.448Z,10.57
2023-05-01T01:40:13.983Z,10.40
2023-05-01T01:42:44.830Z,12.25
2023-05-01T01:45:30.235Z,11.13
2023-05-01T01:47:57.603Z,10.20
2023-05-01T01:50:26.711Z,11.55
2023-05-01T01:52:54.874Z,9.73
2023-05-01T01:55:25.349Z,11.05
2023-05-01T01:57:52.510Z,10.75
2023-05-01T02:00:20.627Z,9.50
2023-05-01T02:02:48.712Z,11.10
2023-05-01T02:05:17.765Z,11.82
2023-05-01T02:07:47.375Z,11.93
2023-05-01T02:10:16.129Z,11.10
2023-05-01T02:12:45.964Z,9.43
2023-05-01T02:15:15.315Z,11.50
2023-05-01T02:17:42.080Z,11.82
2023-05-01T02:20:12.600Z,11.00
2023-05-01T02:22:41.008Z,12.02
2023-05-01T02:25:10.548Z,10.37
2023-05-01T02:27:43.700Z,11.88
2023-05-01T02:30:11.264Z,10.48
2023-05-01T02:32:37.879Z,14.70
2023-05-01T02:35:04.772Z,13.55
2023-05-01T02:37:32.242Z,12.67
2023-05-01T02:39:59.106Z,12.13
2023-05-01T02:42:28.078Z,12.27
2023-05-01T02:44:59.984Z,13.60
2023-05-01T02:47:28.967Z,11.55
2023-05-01T02:49:56.579Z,12.43
2023-05-01T02:52:23.376Z,12.90
2023-05-01T02:54:50.305Z,12.68
2023-05-01T02:57:18.013Z,13.40
2023-05-01T02:59:44.371Z,9.80
2023-05-01T03:02:10.760Z,11.53
2023-05-01T03:04:37.259Z,11.93
2023-05-01T03:07:04.659Z,12.57
2023-05-01T03:09:31.890Z,13.60
2023-05-01T03:11:58.251Z,13.00
2023-05-01T03:14:25.138Z,13.33
2023-05-01T03:16:51.888Z,14.68
2023-05-01T03:19:18.534Z,12.13
2023-05-01T03:21:44.913Z,13.77
2023-05-01T03:24:11.679Z,13.35
2023-05-01T03:26:38.341Z,13.00
2023-05-01T03:29:04.817Z,12.18
2023-05-01T03:31:31.279Z,12.93
2023-05-01T03:33:58.419Z,11.88
2023-05-01T03:36:25.211Z,13.38
2023-05-01T03:38:51.566Z,12.93
2023-05-01T03:41:17.934Z,15.15
2023-05-01T03:43:44.315Z,12.10
2023-05-01T03:46:10.869Z,12.60
2023-05-01T03:48:37.283Z,13.65
2023-05-01T03:51:04.334Z,14.57
2023-05-01T03:53:30.732Z,11.98
2023-05-01T03:55:57.315Z,15.32
2023-05-01T03:58:23.734Z,11.73
2023-05-01T04:00:50.992Z,15.18
2023-05-01T04:03:17.786Z,12.30
2023-05-01T04:05:44.581Z,13.00
2023-05-01T04:08:11.265Z,13.32
2023-05-01T04:10:37.636Z,11.50
2023-05-01T04:13:04.814Z,15.63
2023-05-01T04:15:31.175Z,12.57
2023-05-01T04:17:57.724Z,12.23
2023-05-01T04:20:24.216Z,15.38
2023-05-01T04:22:50.610Z,15.93
2023-05-01T04:25:17.075Z,13.75
2023-05-01T04:27:43.452Z,13.57
2023-05-01T04:30:10.596Z,15.90
2023-05-01T04:32:37.054Z,12.77
2023-05-01T04:35:04.806Z,15.73
2023-05-01T04:37:31.204Z,13.65
2023-05-01T04:39:57.924Z,17.43
2023-05-01T04:42:30.701Z,14.73
2023-05-01T04:44:57.099Z,15.85
2023-05-01T04:47:23.717Z,14.65
2023-05-01T04:49:50.073Z,13.10
2023-05-01T04:52:16.452Z,15.13
2023-05-01T04:54:42.828Z,14.13
2023-05-01T04:57:09.291Z,13.57
2023-05-01T04:59:35.920Z,13.55
2023-05-01T05:02:02.548Z,12.95
2023-05-01T05:04:29.132Z,11.63
2023-05-01T05:06:55.561Z,14.80
2023-05-01T05:09:21.943Z,12.63
2023-05-01T05:11:48.310Z,13.07
2023-05-01T05:14:14.702Z,14.50
2023-05-01T05:16:41.133Z,12.90
2023-05-01T05:19:07.660Z,14.20
2023-05-01T05:21:35.117Z,14.07
2023-05-01T05:24:01.484Z,14.43
2023-05-01T05:26:28.351Z,12.63
2023-05-01T05:28:54.819Z,11.30
2023-05-01T05:31:21.221Z,15.75
2023-05-01T05:33:47.679Z,14.75
2023-05-01T05:36:14.165Z,12.23
2023-05-01T05:38:40.719Z,15.80
2023-05-01T05:41:07.095Z,13.67
2023-05-01T05:43:33.483Z,15.30
2023-05-01T05:46:00.514Z,14.15
2023-05-01T05:48:27.648Z,11.50
2023-05-01T05:50:54.074Z,13.55
2023-05-01T05:53:20.805Z,12.37
2023-05-01T05:55:48.271Z,10.95
2023-05-01T05:58:19.886Z,11.43
2023-05-01T06:00:48.327Z,12.00
2023-05-01T06:03:53.156Z,13.00
2023-05-01T06:06:19.629Z,12.77
2023-05-01T06:08:46.262Z,14.20
2023-05-01T06:11:12.733Z,12.40
2023-05-01T06:13:39.092Z,11.93
2023-05-01T06:16:07.310Z,12.23
2023-05-01T06:18:33.866Z,13.80
2023-05-01T06:21:00.438Z,10.32
2023-05-01T06:23:26.819Z,12.40
2023-05-01T06:25:53.207Z,12.38
2023-05-01T06:28:19.559Z,10.73
2023-05-01T06:30:46.294Z,10.37
2023-05-01T06:33:12.719Z,10.73
2023-05-01T06:35:39.824Z,10.77
2023-05-01T06:38:06.195Z,12.68
2023-05-01T06:40:34.749Z,11.00
2023-05-01T06:43:02.654Z,13.10
2023-05-01T06:45:29.110Z,11.35
2023-05-01T06:47:55.708Z,11.98
2023-05-01T06:50:22.125Z,11.45
2023-05-01T06:52:48.491Z,12.13
2023-05-01T06:55:14.874Z,11.77
2023-05-01T06:57:41.295Z,13.05
2023-05-01T07:00:08.282Z,12.35
2023-05-01T07:02:35.207Z,10.45
2023-05-01T07:05:02.042Z,14.80
2023-05-01T07:07:28.396Z,13.33
2023-05-01T07:09:55.119Z,14.35
2023-05-01T07:12:23.213Z,12.55
2023-05-01T07:14:49.587Z,13.15
2023-05-01T07:17:15.972Z,13.00
2023-05-01T07:19:42.485Z,10.47
2023-05-01T07:22:08.836Z,12.15
2023-05-01T07:24:35.202Z,15.55
2023-05-01T07:27:01.592Z,11.15
2023-05-01T07:29:28.022Z,11.82
2023-05-01T07:31:54.570Z,11.17
2023-05-01T07:34:21.342Z,11.98
2023-05-01T07:36:47.717Z,13.43
2023-05-01T07:39:14.812Z,11.10
2023-05-01T07:41:41.198Z,12.85
2023-05-01T07:44:07.558Z,10.37
2023-05-01T07:46:35.118Z,10.07
2023-05-01T07:49:01.966Z,10.18
2023-05-01T07:51:28.318Z,11.30
2023-05-01T07:53:54.748Z,11.23
2023-05-01T07:56:21.399Z,11.83
2023-05-01T07:58:47.759Z,11.38
2023-05-01T08:01:14.344Z,10.68
2023-05-01T08:03:40.820Z,10.38
2023-05-01T08:06:07.685Z,10.55
2023-05-01T08:08:34.296Z,11.63
2023-05-01T08:11:00.793Z,11.13
2023-05-01T08:13:27.220Z,11.25
2023-05-01T08:15:53.671Z,11.50
2023-05-01T08:18:21.076Z,12.27
2023-05-01T08:20:48.571Z,10.53
2023-05-01T08:23:18.626Z,12.07
2023-05-01T08:25:50.918Z,10.00
2023-05-01T08:28:18.238Z,11.35
2023-05-01T08:30:46.161Z,9.60
2023-05-01T08:33:12.604Z,10.20
2023-05-01T08:35:39.046Z,11.18
2023-05-01T08:38:05.456Z,11.20
2023-05-01T08:40:36.084Z,11.50
2023-05-01T08:43:02.700Z,10.82
2023-05-01T08:45:35.766Z,11.27
2023-05-01T08:48:06.007Z,8.70
2023-05-01T08:50:36.312Z,10.50
2023-05-01T08:53:04.165Z,9.75
2023-05-01T08:55:32.345Z,10.38
2023-05-01T08:57:59.575Z,11.47
2023-05-01T09:00:27.283Z,8.65
2023-05-01T09:02:55.184Z,11.10
2023-05-01T09:05:21.635Z,8.68
2023-05-01T09:07:48.585Z,11.95
2023-05-01T09:10:21.677Z,10.07
2023-05-01T09:12:54.164Z,11.48
2023-05-01T09:15:21.558Z,11.27
2023-05-01T09:17:48.168Z,10.45
2023-05-01T09:20:15.610Z,10.82
2023-05-01T09:22:42.113Z,10.90
2023-05-01T09:25:10.794Z,10.70
2023-05-01T09:27:38.242Z,12.18
2023-05-01T09:30:06.620Z,11.20
2023-05-01T09:32:33.282Z,12.02
2023-05-01T09:35:14.427Z,11.23
2023-05-01T09:37:41.353Z,12.27
2023-05-01T09:40:14.906Z,11.88
2023-05-01T09:42:50.097Z,10.13
2023-05-01T09:45:17.219Z,9.50
2023-05-01T09:47:44.189Z,9.83
2023-05-01T09:50:13.682Z,12.20
2023-05-01T09:52:40.269Z,11.50
2023-05-01T09:55:13.951Z,11.52
2023-05-01T09:57:42.796Z,10.00
2023-05-01T10:00:11.176Z,10.67
2023-05-01T10:02:38.444Z,9.15
2023-05-01T10:05:06.024Z,11.65
2023-05-01T10:07:32.439Z,10.77
2023-05-01T10:10:01.353Z,9.88
2023-05-01T10:12:30.372Z,11.77
2023-05-01T10:14:57.793Z,9.90
2023-05-01T10:17:24.258Z,10.73
2023-05-01T10:19:51.443Z,9.02
2023-05-01T10:22:17.873Z,8.52
2023-05-01T10:24:46.064Z,9.70
2023-05-01T10:27:13.246Z,8.57
2023-05-01T10:29:46.251Z,8.43
2023-05-01T10:32:13.018Z,9.35
2023-05-01T10:34:45.184Z,11.15
2023-05-01T10:37:34.112Z,9.47
2023-05-01T10:40:00.573Z,7.97
2023-05-01T10:42:28.089Z,8.77
2023-05-01T10:45:30.506Z,9.52
2023-05-01T10:47:57.051Z,8.35
2023-05-01T10:50:23.452Z,7.57
2023-05-01T10:53:11.808Z,7.28
2023-05-01T10:55:39.533Z,7.97
2023-05-01T10:58:05.960Z,9.25
2023-05-01T11:00:34.108Z,9.10
2023-05-01T11:03:22.425Z,8.77
2023-05-01T11:06:05.485Z,6.97
2023-05-01T11:08:32.698Z,8.85
2023-05-01T11:11:22.666Z,8.60
2023-05-01T11:13:59.822Z,8.60
2023-05-01T11:16:46.011Z,8.43
2023-05-01T11:19:38.298Z,6.72
2023-05-01T11:22:12.902Z,7.55
2023-05-01T11:24:39.420Z,9.90
2023-05-01T11:27:06.773Z,9.50
2023-05-01T11:29:33.653Z,7.17
2023-05-01T11:32:00.955Z,8.07
2023-05-01T11:34:28.048Z,8.60
2023-05-01T11:36:54.466Z,7.57
2023-05-01T11:39:22.087Z,9.07
2023-05-01T11:41:48.543Z,9.87
2023-05-01T11:44:17.271Z,9.07
2023-05-01T11:46:44.220Z,8.05
2023-05-01T11:49:11.464Z,10.80
2023-05-01T11:51:37.995Z,8.32
2023-05-01T11:54:15.893Z,9.53
2023-05-01T11:56:42.707Z,8.13
2023-05-01T11:59:17.963Z,7.05
2023-05-01T12:01:45.718Z,9.20
2023-05-01T12:04:13.784Z,9.32
2023-05-01T12:06:45.969Z,6.50
2023-05-01T12:09:23.195Z,6.22
2023-05-01T12:11:52.701Z,7.43
2023-05-01T12:14:20.477Z,7.00
2023-05-01T12:16:47.758Z,6.68
2023-05-01T12:19:15.580Z,7.77
2023-05-01T12:21:42.204Z,5.20
2023-05-01T12:24:16.387Z,6.43
2023-05-01T12:26:44.329Z,4.97
2023-05-01T12:29:11.535Z,4.00
2023-05-01T12:31:46.861Z,3.73
2023-05-01T12:34:13.576Z,5.40
2023-05-01T12:36:40.085Z,4.78
2023-05-01T12:39:13.711Z,5.93
2023-05-01T12:41:44.453Z,4.25
2023-05-01T12:44:24.745Z,5.17
2023-05-01T12:47:05.207Z,5.13
2023-05-01T12:49:32.464Z,3.92
2023-05-01T12:52:03.502Z,4.65
2023-05-01T12:54:34.697Z,3.65
2023-05-01T12:57:12.142Z,4.43
2023-05-01T12:59:40.045Z,4.05
2023-05-01T13:02:17.690Z,5.03
2023-05-01T13:04:44.705Z,5.57
2023-05-01T13:07:16.470Z,6.35
2023-05-01T13:09:57.699Z,5.03
2023-05-01T13:12:25.307Z,7.05
2023-05-01T13:14:51.875Z,6.60
2023-05-01T13:17:29.463Z,5.40
2023-05-01T13:20:00.799Z,6.60
2023-05-01T13:22:36.233Z,5.27
2023-05-01T13:25:15.850Z,4.95
2023-05-01T13:27:47.265Z,5.28
2023-05-01T13:30:13.729Z,4.95
2023-05-01T13:32:41.196Z,4.55
2023-05-01T13:35:08.492Z,5.73
2023-05-01T13:37:39.867Z,5.75
2023-05-01T13:40:06.866Z,5.57
2023-05-01T13:42:33.340Z,5.32
2023-05-01T13:44:59.992Z,5.28
2023-05-01T13:47:27.177Z,5.23
2023-05-01T13:49:54.321Z,5.03
2023-05-01T13:52:20.893Z,6.72
2023-05-01T13:54:48.443Z,5.53
2023-05-01T13:57:17.230Z,6.07
2023-05-01T13:59:45.270Z,5.83
2023-05-01T14:02:22.802Z,6.22
2023-05-01T14:04:49.333Z,5.60
2023-05-01T14:07:21.686Z,6.38
2023-05-01T14:09:56.084Z,6.10
2023-05-01T14:12:30.576Z,6.87
2023-05-01T14:14:58.119Z,6.68
2023-05-01T14:17:36.052Z,6.13
2023-05-01T14:20:04.822Z,4.63
2023-05-01T14:22:45.501Z,5.90
2023-05-01T14:25:31.215Z,5.10
2023-05-01T14:27:59.458Z,5.78
2023-05-01T14:30:26.934Z,4.53
2023-05-01T14:32:53.866Z,6.65
2023-05-01T14:35:22.110Z,4.15
2023-05-01T14:37:48.647Z,4.87
2023-05-01T14:40:17.477Z,6.40
2023-05-01T14:42:44.616Z,5.40
2023-05-01T14:45:14.338Z,5.30
2023-05-01T14:47:43.922Z,6.97
2023-05-01T14:50:11.721Z,5.30
2023-05-01T14:52:39.132Z,5.32
2023-05-01T14:55:06.456Z,5.60
2023-05-01T14:57:32.820Z,4.20
2023-05-01T14:59:59.206Z,5.20
2023-05-01T15:02:25.654Z,7.33
2023-05-01T15:04:52.078Z,6.53
2023-05-01T15:07:18.531Z,6.68
2023-05-01T15:09:46.414Z,5.10
2023-05-01T15:12:12.798Z,5.47
2023-05-01T15:14:39.171Z,8.80
2023-05-01T15:17:05.929Z,6.95
2023-05-01T15:19:32.550Z,7.20
2023-05-01T15:21:58.949Z,7.40
2023-05-01T15:24:25.464Z,7.30
2023-05-01T15:26:51.806Z,6.33
2023-05-01T15:29:18.147Z,6.10
2023-05-01T15:31:44.597Z,6.03
2023-05-01T15:34:11.142Z,7.70
2023-05-01T15:36:37.494Z,7.20
2023-05-01T15:39:04.119Z,8.03
2023-05-01T15:41:30.875Z,6.55
2023-05-01T15:43:57.389Z,5.55
2023-05-01T15:46:25.288Z,7.72
2023-05-01T15:48:51.744Z,7.20
2023-05-01T15:51:18.093Z,6.83
2023-05-01T15:53:44.496Z,5.85
2023-05-01T15:56:11.017Z,9.18
2023-05-01T15:58:37.425Z,10.35
2023-05-01T16:01:03.858Z,7.10
2023-05-01T16:03:30.902Z,5.73
2023-05-01T16:05:57.937Z,9.27
2023-05-01T16:08:24.385Z,5.40
2023-05-01T16:10:51.343Z,6.53
2023-05-01T16:13:17.706Z,6.63
2023-05-01T16:15:44.090Z,6.63
2023-05-01T16:18:19.367Z,8.43
2023-05-01T16:20:45.841Z,6.05
2023-05-01T16:23:14.783Z,6.80
2023-05-01T16:25:43.022Z,5.93
2023-05-01T16:28:09.494Z,5.87
2023-05-01T16:30:35.927Z,5.38
2023-05-01T16:33:05.158Z,5.22
2023-05-01T16:35:31.815Z,6.38
2023-05-01T16:37:59.728Z,6.43
2023-05-01T16:40:26.201Z,6.47
2023-05-01T16:42:54.052Z,6.40
2023-05-01T16:45:21.272Z,6.88
2023-05-01T16:47:47.707Z,6.40
2023-05-01T16:50:14.554Z,5.40
2023-05-01T16:52:41.076Z,6.93
2023-05-01T16:55:07.874Z,9.43
2023-05-01T16:57:34.326Z,12.70
2023-05-01T17:00:01.465Z,8.05
2023-05-01T17:02:28.140Z,9.73
2023-05-01T17:04:54.581Z,9.60
2023-05-01T17:07:23.618Z,11.80
2023-05-01T17:09:50.187Z,12.13
2023-05-01T17:12:16.644Z,11.48
2023-05-01T17:14:43.008Z,27.60
2023-05-01T17:17:09.749Z,14.57
2023-05-01T17:19:38.882Z,10.63
2023-05-01T17:22:06.266Z,12.43
2023-05-01T17:24:32.855Z,12.65
2023-05-01T17:26:59.327Z,13.32
2023-05-01T17:29:27.237Z,11.43
2023-05-01T17:31:53.647Z,14.77
2023-05-01T17:34:20.140Z,15.25
2023-05-01T17:36:46.647Z,13.80
2023-05-01T17:39:13.063Z,12.32
2023-05-01T17:41:39.524Z,14.67
2023-05-01T17:44:06.062Z,15.43
2023-05-01T17:46:32.556Z,12.93
2023-05-01T17:48:58.948Z,14.52
2023-05-01T17:51:25.305Z,14.77
2023-05-01T17:53:52.590Z,15.63
2023-05-01T17:56:19.042Z,13.65
2023-05-01T17:58:45.402Z,13.40
2023-05-01T18:01:11.829Z,12.80
2023-05-01T18:03:39.002Z,14.52
2023-05-01T18:06:05.940Z,15.10
2023-05-01T18:08:32.318Z,16.15
2023-05-01T18:10:58.696Z,15.07
2023-05-01T18:13:28.703Z,16.20
2023-05-01T18:15:56.025Z,29.65
2023-05-01T18:18:23.000Z,40.17
2023-05-01T18:20:49.380Z,20.88
2023-05-01T18:23:18.519Z,21.33
2023-05-01T18:25:45.157Z,20.95
2023-05-01T18:28:11.777Z,16.67
2023-05-01T18:30:38.134Z,20.73
2023-05-01T18:33:04.692Z,18.90
2023-05-01T18:35:31.094Z,20.02
2023-05-01T18:37:57.449Z,22.23
2023-05-01T18:40:24.273Z,28.33
2023-05-01T18:42:51.442Z,27.30
2023-05-01T18:45:17.928Z,22.90
2023-05-01T18:47:44.453Z,26.25
2023-05-01T18:50:11.418Z,28.52
2023-05-01T18:52:37.904Z,25.88
2023-05-01T18:55:04.616Z,22.70
2023-05-01T18:57:31.644Z,23.77
2023-05-01T18:59:58.331Z,27.27
2023-05-01T19:02:24.922Z,25.60
2023-05-01T19:04:57.524Z,27.08
2023-05-01T19:07:25.542Z,27.20
2023-05-01T19:09:51.940Z,28.13
2023-05-01T19:12:18.288Z,28.75
2023-05-01T19:14:44.742Z,32.53
2023-05-01T19:17:11.230Z,29.80
2023-05-01T19:19:37.723Z,30.37
2023-05-01T19:22:04.173Z,29.08
2023-05-01T19:24:30.592Z,28.90
2023-05-01T19:26:56.967Z,25.92
2023-05-01T19:29:23.420Z,22.17
2023-05-01T19:31:50.165Z,21.50
2023-05-01T19:34:16.647Z,21.08
2023-05-01T19:36:43.151Z,16.80
2023-05-01T19:39:10.118Z,20.17
2023-05-01T19:41:36.937Z,18.95
2023-05-01T19:44:03.466Z,18.77
2023-05-01T19:46:29.973Z,18.17
2023-05-01T19:48:56.404Z,17.75
2023-05-01T19:51:22.948Z,16.70
2023-05-01T19:53:49.303Z,18.70
2023-05-01T19:56:15.687Z,18.53
2023-05-01T19:58:42.075Z,17.90
2023-05-01T20:01:11.632Z,18.15
2023-05-01T20:03:38.333Z,19.70
2023-05-01T20:06:06.341Z,19.65
2023-05-01T20:08:33.488Z,21.73
2023-05-01T20:11:01.604Z,18.63
2023-05-01T20:13:28.143Z,21.25
2023-05-01T20:15:54.586Z,18.48
2023-05-01T20:18:21.165Z,19.48
2023-05-01T20:20:47.762Z,19.77
2023-05-01T20:23:19.420Z,18.70
2023-05-01T20:25:48.834Z,20.98
2023-05-01T20:28:15.309Z,20.30
2023-05-01T20:30:43.704Z,23.13
2023-05-01T20:33:10.994Z,21.90
2023-05-01T20:35:38.152Z,24.38
2023-05-01T20:38:04.747Z,23.60
2023-05-01T20:40:32.200Z,22.30
2023-05-01T20:42:59.510Z,25.85
2023-05-01T20:45:26.737Z,24.10
2023-05-01T20:47:53.633Z,24.92
2023-05-01T20:50:20.093Z,27.02
2023-05-01T20:52:46.776Z,28.77
2023-05-01T20:55:13.168Z,35.75
2023-05-01T20:57:40.101Z,34.23
2023-05-01T21:00:07.799Z,32.55
2023-05-01T21:02:37.768Z,33.53
2023-05-01T21:05:05.418Z,30.65
2023-05-01T21:07:31.892Z,32.30
2023-05-01T21:09:58.448Z,37.50
2023-05-01T21:12:25.150Z,34.47
2023-05-01T21:14:51.505Z,34.70
2023-05-01T21:17:18.176Z,33.00
2023-05-01T21:19:46.733Z,31.20
2023-05-01T21:22:18.309Z,31.77
2023-05-01T21:24:45.294Z,31.90
2023-05-01T21:27:12.341Z,34.25
2023-05-01T21:29:40.435Z,36.70
2023-05-01T21:32:07.990Z,28.35
2023-05-01T21:34:35.264Z,36.33
2023-05-01T21:37:01.697Z,34.78
2023-05-01T21:39:28.216Z,33.53
2023-05-01T21:41:54.693Z,34.25
2023-05-01T21:44:22.518Z,36.38
2023-05-01T21:46:50.867Z,34.90
2023-05-01T21:49:22.823Z,35.75
2023-05-01T21:51:49.266Z,39.78
2023-05-01T21:54:16.516Z,35.10
2023-05-01T21:56:42.940Z,39.58
2023-05-01T21:59:09.842Z,37.47
2023-05-01T22:01:38.831Z,35.90
2023-05-01T22:04:07.105Z,38.85
2023-05-01T22:06:33.711Z,38.10
2023-05-01T22:09:00.221Z,35.58
2023-05-01T22:11:26.607Z,35.43
2023-05-01T22:13:52.982Z,34.33
2023-05-01T22:16:19.391Z,29.15
2023-05-01T22:18:48.050Z,28.42
2023-05-01T22:21:16.494Z,26.02
2023-05-01T22:23:42.964Z,25.33
2023-05-01T22:26:09.480Z,25.55
2023-05-01T22:28:35.865Z,22.55
2023-05-01T22:31:02.437Z,24.30
2023-05-01T22:33:28.868Z,25.35
2023-05-01T22:35:55.227Z,22.30
2023-05-01T22:38:21.643Z,24.45
2023-05-01T22:40:48.025Z,22.60
2023-05-01T22:43:14.428Z,25.48
2023-05-01T22:45:40.775Z,24.63
2023-05-01T22:48:07.237Z,24.80
2023-05-01T22:50:33.822Z,28.23
2023-05-01T22:53:00.575Z,27.48
2023-05-01T22:55:26.964Z,27.10
2023-05-01T22:57:53.357Z,29.10
2023-05-01T23:00:20.349Z,26.43
2023-05-01T23:02:46.852Z,26.65
2023-05-01T23:05:13.310Z,28.08
2023-05-01T23:07:39.895Z,25.73
2023-05-01T23:10:07.195Z,26.25
2023-05-01T23:12:34.033Z,25.93
2023-05-01T23:15:00.610Z,25.90
2023-05-01T23:17:33.349Z,30.10
2023-05-01T23:20:00.242Z,27.67
2023-05-01T23:22:29.571Z,25.10
2023-05-01T23:24:55.959Z,26.23
2023-05-01T23:27:22.550Z,28.35
2023-05-01T23:29:57.568Z,26.63
2023-05-01T23:32:30.474Z,25.42
2023-05-01T23:35:07.591Z,31.27
2023-05-01T23:37:33.989Z,30.53
2023-05-01T23:40:01.821Z,28.65
2023-05-01T23:42:28.606Z,25.90
2023-05-01T23:44:56.081Z,26.27
2023-05-01T23:47:22.787Z,23.10
2023-05-01T23:49:49.822Z,20.17
2023-05-01T23:52:16.445Z,22.27
2023-05-01T23:54:42.845Z,23.63
2023-05-01T23:57:09.298Z,24.58
2023-05-01T23:59:35.644Z,21.25
